createdAt,value
2019-06-01T00:00:58.034Z,14.65
2019-06-01T00:03:07.019Z,14.65
2019-06-01T00:05:15.660Z,14.63
2019-06-01T00:07:23.747Z,14.63
2019-06-01T00:09:31.806Z,14.62
2019-06-01T00:11:41.145Z,14.58
2019-06-01T00:13:51.147Z,14.54
2019-06-01T00:15:59.564Z,14.48
2019-06-01T00:18:07.851Z,14.43
2019-06-01T00:20:16.346Z,14.37
2019-06-01T00:22:24.998Z,14.31
2019-06-01T00:24:33.552Z,14.28
2019-06-01T00:26:43.620Z,14.24
2019-06-01T00:28:53.121Z,14.19
2019-06-01T00:31:01.448Z,14.14
2019-06-01T00:33:09.511Z,14.08
2019-06-01T00:35:17.570Z,14.02
2019-06-01T00:37:25.777Z,13.99
2019-06-01T00:39:34.033Z,13.92
2019-06-01T00:41:43.956Z,13.88
2019-06-01T00:43:52.551Z,13.82
2019-06-01T00:46:00.809Z,13.78
2019-06-01T00:48:09.707Z,13.75
2019-06-01T00:50:17.982Z,13.74
2019-06-01T00:52:26.016Z,13.73
2019-06-01T00:54:37.479Z,13.72
2019-06-01T00:56:45.805Z,13.70
2019-06-01T00:58:54.865Z,13.68
2019-06-01T01:01:03.365Z,13.64
2019-06-01T01:03:11.380Z,13.58
2019-06-01T01:05:21.462Z,13.54
2019-06-01T01:07:30.324Z,13.51
2019-06-01T01:09:38.680Z,13.45
2019-06-01T01:11:47.041Z,13.44
2019-06-01T01:13:55.392Z,13.43
2019-06-01T01:16:03.415Z,13.40
2019-06-01T01:18:11.541Z,13.26
2019-06-01T01:20:19.532Z,13.21
2019-06-01T01:22:27.814Z,13.02
2019-06-01T01:24:35.800Z,12.97
2019-06-01T01:26:44.066Z,12.86
2019-06-01T01:28:52.982Z,12.85
2019-06-01T01:31:12.888Z,12.85
2019-06-01T01:33:12.107Z,12.89
2019-06-01T01:35:20.193Z,12.91
2019-06-01T01:37:28.080Z,12.96
2019-06-01T01:39:36.078Z,12.96
2019-06-01T01:41:44.498Z,12.99
2019-06-01T01:43:52.826Z,13.01
2019-06-01T01:46:00.931Z,13.04
2019-06-01T01:48:09.154Z,13.03
2019-06-01T01:50:18.283Z,13.06
2019-06-01T01:52:27.908Z,13.08
2019-06-01T01:54:36.493Z,13.10
2019-06-01T01:56:46.211Z,13.12
2019-06-01T01:58:54.361Z,13.16
2019-06-01T02:01:20.735Z,13.19
2019-06-01T02:03:12.217Z,13.22
2019-06-01T02:05:20.176Z,13.25
2019-06-01T02:07:28.690Z,13.29
2019-06-01T02:09:36.770Z,13.32
2019-06-01T02:11:44.830Z,13.36
2019-06-01T02:13:53.637Z,13.28
2019-06-01T02:16:02.603Z,13.17
2019-06-01T02:18:10.749Z,13.25
2019-06-01T02:20:19.165Z,13.21
2019-06-01T02:22:27.240Z,13.23
2019-06-01T02:24:35.236Z,13.29
2019-06-01T02:26:43.256Z,13.32
2019-06-01T02:28:51.448Z,13.30
2019-06-01T02:31:00.156Z,13.36
2019-06-01T02:33:08.547Z,13.41
2019-06-01T02:35:17.259Z,13.49
2019-06-01T02:37:25.734Z,13.55
2019-06-01T02:39:33.661Z,13.60
2019-06-01T02:41:42.699Z,13.64
2019-06-01T02:43:50.881Z,13.67
2019-06-01T02:46:02.705Z,13.68
2019-06-01T02:48:11.261Z,13.64
2019-06-01T02:50:20.458Z,13.64
2019-06-01T02:52:28.390Z,13.65
2019-06-01T02:54:37.348Z,13.67
2019-06-01T02:56:45.307Z,13.67
2019-06-01T02:58:53.322Z,13.67
2019-06-01T03:01:30.248Z,13.69
2019-06-01T03:03:38.378Z,13.73
2019-06-01T03:05:47.905Z,13.75
2019-06-01T03:07:57.304Z,13.77
2019-06-01T03:10:07.023Z,13.79
2019-06-01T03:12:18.956Z,13.87
2019-06-01T03:14:29.470Z,14.02
2019-06-01T03:16:42.984Z,14.22
2019-06-01T03:18:55.407Z,14.41
2019-06-01T03:21:06.341Z,14.63
2019-06-01T03:23:17.753Z,14.81
2019-06-01T03:25:29.019Z,14.99
2019-06-01T03:27:39.826Z,15.19
2019-06-01T03:29:55.378Z,15.38
2019-06-01T03:32:23.842Z,15.53
2019-06-01T03:34:14.147Z,15.67
2019-06-01T03:36:22.246Z,15.74
2019-06-01T03:38:32.033Z,15.78
2019-06-01T03:40:40.290Z,15.82
2019-06-01T03:42:49.114Z,15.90
2019-06-01T03:44:57.193Z,15.92
2019-06-01T03:47:05.667Z,15.94
2019-06-01T03:49:15.932Z,15.94
2019-06-01T03:51:23.945Z,15.93
2019-06-01T03:53:31.991Z,15.92
2019-06-01T03:55:40.114Z,15.91
2019-06-01T03:57:49.194Z,15.92
2019-06-01T03:59:57.193Z,15.94
2019-06-01T04:02:05.179Z,15.98
2019-06-01T04:04:13.587Z,16.04
2019-06-01T04:06:21.674Z,16.11
2019-06-01T04:08:29.734Z,16.17
2019-06-01T04:10:37.811Z,16.26
2019-06-01T04:12:45.871Z,16.38
2019-06-01T04:14:54.039Z,16.47
2019-06-01T04:17:02.074Z,16.58
2019-06-01T04:19:10.096Z,16.68
2019-06-01T04:21:18.705Z,16.79
2019-06-01T04:23:26.783Z,16.86
2019-06-01T04:25:35.126Z,16.98
2019-06-01T04:27:43.997Z,17.07
2019-06-01T04:29:52.419Z,17.16
2019-06-01T04:32:00.454Z,17.27
2019-06-01T04:34:08.947Z,17.35
2019-06-01T04:36:17.567Z,17.43
2019-06-01T04:38:26.035Z,17.50
2019-06-01T04:40:34.424Z,17.59
2019-06-01T04:42:42.452Z,17.68
2019-06-01T04:44:51.960Z,17.76
2019-06-01T04:47:00.916Z,17.84
2019-06-01T04:49:10.708Z,17.91
2019-06-01T04:51:19.838Z,17.96
2019-06-01T04:53:28.094Z,18.05
2019-06-01T04:55:36.179Z,18.14
2019-06-01T04:57:44.560Z,18.25
2019-06-01T04:59:52.915Z,18.32
2019-06-01T05:02:01.009Z,18.38
2019-06-01T05:04:09.249Z,18.47
2019-06-01T05:06:17.626Z,18.54
2019-06-01T05:08:25.808Z,18.63
2019-06-01T05:10:33.907Z,18.72
2019-06-01T05:12:45.285Z,18.78
2019-06-01T05:14:53.846Z,18.89
2019-06-01T05:17:02.165Z,18.96
2019-06-01T05:19:10.460Z,18.95
2019-06-01T05:21:18.966Z,19.03
2019-06-01T05:23:27.726Z,19.17
2019-06-01T05:25:37.300Z,19.28
2019-06-01T05:27:45.305Z,19.36
2019-06-01T05:29:53.335Z,19.47
2019-06-01T05:32:02.289Z,19.56
2019-06-01T05:34:11.719Z,19.65
2019-06-01T05:36:19.842Z,19.74
2019-06-01T05:38:27.835Z,19.85
2019-06-01T05:40:35.840Z,19.94
2019-06-01T05:42:43.945Z,20.03
2019-06-01T05:44:52.255Z,20.12
2019-06-01T05:47:00.413Z,20.07
2019-06-01T05:49:08.477Z,20.24
2019-06-01T05:51:18.500Z,20.41
2019-06-01T05:53:26.491Z,20.12
2019-06-01T05:55:34.752Z,20.07
2019-06-01T05:57:42.823Z,20.14
2019-06-01T05:59:50.927Z,20.41
2019-06-01T06:02:02.356Z,20.58
2019-06-01T06:04:11.335Z,20.70
2019-06-01T06:06:19.973Z,20.82
2019-06-01T06:08:28.633Z,20.92
2019-06-01T06:10:37.341Z,21.01
2019-06-01T06:12:46.029Z,21.11
2019-06-01T06:14:54.507Z,21.21
2019-06-01T06:17:03.026Z,21.28
2019-06-01T06:19:12.534Z,21.33
2019-06-01T06:21:22.284Z,21.38
2019-06-01T06:23:30.905Z,21.48
2019-06-01T06:25:41.266Z,21.55
2019-06-01T06:27:49.688Z,21.62
2019-06-01T06:29:58.150Z,21.67
2019-06-01T06:32:09.230Z,21.77
2019-06-01T06:34:17.438Z,21.87
2019-06-01T06:36:26.085Z,21.93
2019-06-01T06:38:34.408Z,22.00
2019-06-01T06:40:42.965Z,22.09
2019-06-01T06:42:51.238Z,22.10
2019-06-01T06:45:03.337Z,22.03
2019-06-01T06:47:10.233Z,22.10
2019-06-01T06:49:19.177Z,22.01
2019-06-01T06:51:27.408Z,21.94
2019-06-01T06:53:35.784Z,22.01
2019-06-01T06:55:44.187Z,21.78
2019-06-01T06:57:52.433Z,22.02
2019-06-01T07:00:00.420Z,22.26
2019-06-01T07:02:08.696Z,22.41
2019-06-01T07:04:17.282Z,22.26
2019-06-01T07:06:25.764Z,22.26
2019-06-01T07:08:33.910Z,22.14
2019-06-01T07:10:41.914Z,22.14
2019-06-01T07:12:53.343Z,22.14
2019-06-01T07:15:02.357Z,22.22
2019-06-01T07:17:13.629Z,22.21
2019-06-01T07:19:21.690Z,22.16
2019-06-01T07:21:30.559Z,22.27
2019-06-01T07:23:39.632Z,22.37
2019-06-01T07:25:47.614Z,21.84
2019-06-01T07:27:56.092Z,22.02
2019-06-01T07:30:05.634Z,21.96
2019-06-01T07:32:15.282Z,21.92
2019-06-01T07:34:35.591Z,22.18
2019-06-01T07:36:33.432Z,22.04
2019-06-01T07:38:41.907Z,22.27
2019-06-01T07:40:50.780Z,22.35
2019-06-01T07:42:58.777Z,22.30
2019-06-01T07:45:08.891Z,22.40
2019-06-01T07:47:17.092Z,22.59
2019-06-01T07:49:26.962Z,22.67
2019-06-01T07:51:35.946Z,22.50
2019-06-01T07:53:44.217Z,22.60
2019-06-01T07:55:52.120Z,22.83
2019-06-01T07:58:00.185Z,22.97
2019-06-01T08:00:09.750Z,23.21
2019-06-01T08:02:18.276Z,23.32
2019-06-01T08:04:28.589Z,23.39
2019-06-01T08:06:43.879Z,23.16
2019-06-01T08:08:47.485Z,23.49
2019-06-01T08:10:55.763Z,23.29
2019-06-01T08:13:04.307Z,23.53
2019-06-01T08:15:13.418Z,23.56
2019-06-01T08:17:22.107Z,22.97
2019-06-01T08:19:30.552Z,22.81
2019-06-01T08:21:38.961Z,22.78
2019-06-01T08:23:48.211Z,22.72
2019-06-01T08:25:56.163Z,22.72
2019-06-01T08:28:04.797Z,22.99
2019-06-01T08:30:13.216Z,22.75
2019-06-01T08:32:22.567Z,22.84
2019-06-01T08:34:31.074Z,22.96
2019-06-01T08:36:39.469Z,23.10
2019-06-01T08:38:48.022Z,23.27
2019-06-01T08:40:56.569Z,22.69
2019-06-01T08:43:04.912Z,22.67
2019-06-01T08:45:15.116Z,22.90
2019-06-01T08:47:23.658Z,23.00
2019-06-01T08:49:32.627Z,23.30
2019-06-01T08:51:41.189Z,23.17
2019-06-01T08:53:49.879Z,23.30
2019-06-01T08:55:58.154Z,23.17
2019-06-01T08:58:06.625Z,23.25
2019-06-01T09:00:16.236Z,23.16
2019-06-01T09:02:24.741Z,23.25
2019-06-01T09:04:32.866Z,23.18
2019-06-01T09:06:42.442Z,23.30
2019-06-01T09:08:50.720Z,23.41
2019-06-01T09:11:02.163Z,23.51
2019-06-01T09:13:10.789Z,23.90
2019-06-01T09:15:19.635Z,23.50
2019-06-01T09:17:29.409Z,23.80
2019-06-01T09:19:37.977Z,23.61
2019-06-01T09:21:46.517Z,23.66
2019-06-01T09:23:54.837Z,23.60
2019-06-01T09:26:03.143Z,23.65
2019-06-01T09:28:11.724Z,23.79
2019-06-01T09:30:20.440Z,23.59
2019-06-01T09:32:29.948Z,23.75
2019-06-01T09:34:38.400Z,23.95
2019-06-01T09:36:46.653Z,23.79
2019-06-01T09:38:55.239Z,23.54
2019-06-01T09:41:03.620Z,23.04
2019-06-01T09:43:12.332Z,22.94
2019-06-01T09:45:22.518Z,23.28
2019-06-01T09:47:31.069Z,23.79
2019-06-01T09:49:39.583Z,24.12
2019-06-01T09:51:48.184Z,24.36
2019-06-01T09:53:56.671Z,24.53
2019-06-01T09:56:05.709Z,24.71
2019-06-01T09:58:14.176Z,24.80
2019-06-01T10:00:22.914Z,24.70
2019-06-01T10:02:32.031Z,24.80
2019-06-01T10:04:41.101Z,24.75
2019-06-01T10:06:49.484Z,24.70
2019-06-01T10:08:58.345Z,24.59
2019-06-01T10:11:06.832Z,24.46
2019-06-01T10:13:15.104Z,24.35
2019-06-01T10:15:23.966Z,24.44
2019-06-01T10:17:33.303Z,24.48
2019-06-01T10:19:45.251Z,24.47
2019-06-01T10:21:54.115Z,24.40
2019-06-01T10:24:02.549Z,24.33
2019-06-01T10:26:10.904Z,24.33
2019-06-01T10:28:19.384Z,24.33
2019-06-01T10:30:27.982Z,24.37
2019-06-01T10:32:36.324Z,24.30
2019-06-01T10:34:44.987Z,24.31
2019-06-01T10:36:53.367Z,24.18
2019-06-01T10:39:01.350Z,24.32
2019-06-01T10:41:10.405Z,24.30
2019-06-01T10:43:18.612Z,24.29
2019-06-01T10:45:27.043Z,24.05
2019-06-01T10:47:35.994Z,24.37
2019-06-01T10:49:44.278Z,24.29
2019-06-01T10:51:52.730Z,24.34
2019-06-01T10:54:01.209Z,24.44
2019-06-01T10:56:09.714Z,24.41
2019-06-01T10:58:18.194Z,24.45
2019-06-01T11:00:39.748Z,24.56
2019-06-01T11:02:38.704Z,24.52
2019-06-01T11:04:47.437Z,24.74
2019-06-01T11:06:55.818Z,24.84
2019-06-01T11:09:05.832Z,24.94
2019-06-01T11:11:14.367Z,24.87
2019-06-01T11:13:22.731Z,24.66
2019-06-01T11:15:31.289Z,24.36
2019-06-01T11:17:39.744Z,23.93
2019-06-01T11:19:48.124Z,24.23
2019-06-01T11:21:56.217Z,24.46
2019-06-01T11:24:05.435Z,24.40
2019-06-01T11:26:13.515Z,24.38
2019-06-01T11:28:21.749Z,24.45
2019-06-01T11:30:30.036Z,24.27
2019-06-01T11:32:39.936Z,24.39
2019-06-01T11:34:48.086Z,24.28
2019-06-01T11:37:04.863Z,24.25
2019-06-01T11:39:08.007Z,24.46
2019-06-01T11:41:18.597Z,24.88
2019-06-01T11:43:26.688Z,25.02
2019-06-01T11:45:35.038Z,25.10
2019-06-01T11:47:43.248Z,25.31
2019-06-01T11:49:51.824Z,25.10
2019-06-01T11:52:00.012Z,24.74
2019-06-01T11:54:08.394Z,24.71
2019-06-01T11:56:16.569Z,24.73
2019-06-01T11:58:24.846Z,24.57
2019-06-01T12:00:32.955Z,24.94
2019-06-01T12:02:41.799Z,24.95
2019-06-01T12:04:50.064Z,24.98
2019-06-01T12:07:16.349Z,24.57
2019-06-01T12:09:09.851Z,24.56
2019-06-01T12:11:18.250Z,24.54
2019-06-01T12:13:27.233Z,24.72
2019-06-01T12:15:36.298Z,24.82
2019-06-01T12:17:45.618Z,24.87
2019-06-01T12:19:54.503Z,24.92
2019-06-01T12:22:02.592Z,25.13
2019-06-01T12:24:10.872Z,25.17
2019-06-01T12:26:19.565Z,25.33
2019-06-01T12:28:27.780Z,25.32
2019-06-01T12:30:37.517Z,24.66
2019-06-01T12:32:46.121Z,24.31
2019-06-01T12:34:54.271Z,24.14
2019-06-01T12:37:02.365Z,24.13
2019-06-01T12:39:10.626Z,24.12
2019-06-01T12:41:18.678Z,24.04
2019-06-01T12:43:27.154Z,23.94
2019-06-01T12:45:35.141Z,23.87
2019-06-01T12:47:44.033Z,23.83
2019-06-01T12:49:52.710Z,23.81
2019-06-01T12:52:01.078Z,23.74
2019-06-01T12:54:09.770Z,23.88
2019-06-01T12:56:17.663Z,23.71
2019-06-01T12:58:25.764Z,23.77
2019-06-01T13:00:34.018Z,23.88
2019-06-01T13:02:49.048Z,23.88
2019-06-01T13:04:54.092Z,24.05
2019-06-01T13:07:02.093Z,23.98
2019-06-01T13:09:10.295Z,23.98
2019-06-01T13:11:19.182Z,23.98
2019-06-01T13:13:28.582Z,24.05
2019-06-01T13:15:36.626Z,24.30
2019-06-01T13:17:45.364Z,24.43
2019-06-01T13:19:54.779Z,24.59
2019-06-01T13:22:05.953Z,24.67
2019-06-01T13:24:15.256Z,24.71
2019-06-01T13:26:23.987Z,24.66
2019-06-01T13:28:37.938Z,24.43
2019-06-01T13:30:47.381Z,24.63
2019-06-01T13:32:56.958Z,24.72
2019-06-01T13:35:08.592Z,24.82
2019-06-01T13:37:17.416Z,24.34
2019-06-01T13:39:26.877Z,24.44
2019-06-01T13:41:35.017Z,24.60
2019-06-01T13:43:43.697Z,24.72
2019-06-01T13:45:52.295Z,24.79
2019-06-01T13:48:01.191Z,24.86
2019-06-01T13:50:10.806Z,24.93
2019-06-01T13:52:19.493Z,24.95
2019-06-01T13:54:27.589Z,24.96
2019-06-01T13:56:35.748Z,24.99
2019-06-01T13:58:44.248Z,25.00
2019-06-01T14:00:56.089Z,25.05
2019-06-01T14:03:06.631Z,25.10
2019-06-01T14:05:18.814Z,25.12
2019-06-01T14:07:36.491Z,25.16
2019-06-01T14:09:52.212Z,25.18
2019-06-01T14:11:58.257Z,25.19
2019-06-01T14:14:08.450Z,25.18
2019-06-01T14:16:16.965Z,25.16
2019-06-01T14:18:25.329Z,25.15
2019-06-01T14:20:33.433Z,25.13
2019-06-01T14:22:41.438Z,25.15
2019-06-01T14:25:04.160Z,25.10
2019-06-01T14:27:01.773Z,24.92
2019-06-01T14:29:10.233Z,24.88
2019-06-01T14:31:18.330Z,24.87
2019-06-01T14:33:26.923Z,24.86
2019-06-01T14:35:35.967Z,24.73
2019-06-01T14:37:44.672Z,24.83
2019-06-01T14:39:52.947Z,24.84
2019-06-01T14:42:00.939Z,24.84
2019-06-01T14:44:08.901Z,24.84
2019-06-01T14:46:17.698Z,24.89
2019-06-01T14:48:26.133Z,24.94
2019-06-01T14:50:34.701Z,24.87
2019-06-01T14:52:42.890Z,25.06
2019-06-01T14:54:51.790Z,25.08
2019-06-01T14:56:59.799Z,25.02
2019-06-01T14:59:07.737Z,25.17
2019-06-01T15:01:31.503Z,25.24
2019-06-01T15:03:25.480Z,25.15
2019-06-01T15:05:33.442Z,25.31
2019-06-01T15:07:41.529Z,25.34
2019-06-01T15:09:50.110Z,25.38
2019-06-01T15:11:59.116Z,25.47
2019-06-01T15:14:07.278Z,25.44
2019-06-01T15:16:15.266Z,25.47
2019-06-01T15:18:23.343Z,25.43
2019-06-01T15:20:31.348Z,25.51
2019-06-01T15:22:39.439Z,26.56
2019-06-01T15:24:47.383Z,27.34
2019-06-01T15:26:55.393Z,28.32
2019-06-01T15:29:03.281Z,28.61
2019-06-01T15:31:11.342Z,27.97
2019-06-01T15:33:19.379Z,27.64
2019-06-01T15:35:27.539Z,28.68
2019-06-01T15:37:35.828Z,28.90
2019-06-01T15:39:44.821Z,29.04
2019-06-01T15:41:53.149Z,29.63
2019-06-01T15:44:01.322Z,29.59
2019-06-01T15:46:09.702Z,29.77
2019-06-01T15:48:18.858Z,29.82
2019-06-01T15:50:26.837Z,29.65
2019-06-01T15:52:34.834Z,29.55
2019-06-01T15:54:42.726Z,29.69
2019-06-01T15:56:50.690Z,29.57
2019-06-01T15:58:59.900Z,29.03
2019-06-01T16:01:08.181Z,28.80
2019-06-01T16:03:16.529Z,28.40
2019-06-01T16:05:24.709Z,28.38
2019-06-01T16:07:32.772Z,27.63
2019-06-01T16:09:43.048Z,27.28
2019-06-01T16:11:50.723Z,26.83
2019-06-01T16:13:59.811Z,26.07
2019-06-01T16:16:08.556Z,26.21
2019-06-01T16:18:16.563Z,26.01
2019-06-01T16:20:24.646Z,26.01
2019-06-01T16:22:32.706Z,25.96
2019-06-01T16:24:40.909Z,25.83
2019-06-01T16:26:50.391Z,25.85
2019-06-01T16:28:58.992Z,25.83
2019-06-01T16:31:07.698Z,25.73
2019-06-01T16:33:15.809Z,25.81
2019-06-01T16:35:23.813Z,25.76
2019-06-01T16:37:32.022Z,25.67
2019-06-01T16:39:40.892Z,25.39
2019-06-01T16:41:49.280Z,25.27
2019-06-01T16:43:59.447Z,25.01
2019-06-01T16:46:07.673Z,25.09
2019-06-01T16:48:15.741Z,25.18
2019-06-01T16:50:23.945Z,25.19
2019-06-01T16:52:32.004Z,25.18
2019-06-01T16:54:40.638Z,25.16
2019-06-01T16:56:48.762Z,25.08
2019-06-01T16:58:58.071Z,25.10
2019-06-01T17:01:07.512Z,25.07
2019-06-01T17:03:15.554Z,24.99
2019-06-01T17:05:23.757Z,24.94
2019-06-01T17:07:31.752Z,24.88
2019-06-01T17:09:40.032Z,24.93
2019-06-01T17:11:47.924Z,24.86
2019-06-01T17:13:56.589Z,24.92
2019-06-01T17:16:05.168Z,24.93
2019-06-01T17:18:13.436Z,24.89
2019-06-01T17:20:43.074Z,24.96
2019-06-01T17:22:51.097Z,24.95
2019-06-01T17:24:59.722Z,25.01
2019-06-01T17:27:50.223Z,24.92
2019-06-01T17:33:42.898Z,24.89
2019-06-01T17:35:50.931Z,24.90
2019-06-01T17:38:18.846Z,24.88
2019-06-01T17:40:36.727Z,24.89
2019-06-01T17:49:55.429Z,24.81
2019-06-01T17:52:04.035Z,24.66
2019-06-01T17:54:56.824Z,24.57
2019-06-01T18:00:42.163Z,24.31
2019-06-01T18:02:50.206Z,24.17
2019-06-01T18:04:58.375Z,24.13
2019-06-01T18:10:55.065Z,24.17
2019-06-01T18:13:57.653Z,24.23
2019-06-01T18:16:06.321Z,24.24
2019-06-01T18:18:39.400Z,24.19
2019-06-01T18:20:48.724Z,24.13
2019-06-01T18:29:33.395Z,23.39
2019-06-01T18:32:15.221Z,22.99
2019-06-01T18:35:27.119Z,22.86
2019-06-01T18:37:35.301Z,22.80
2019-06-01T18:39:47.598Z,22.55
2019-06-01T18:41:54.698Z,22.44
2019-06-01T18:44:17.610Z,22.21
2019-06-01T18:50:27.099Z,22.26
2019-06-01T18:52:36.988Z,22.06
2019-06-01T18:55:55.323Z,21.90
2019-06-01T18:58:43.205Z,21.91
2019-06-01T19:00:51.338Z,21.61
2019-06-01T19:07:01.430Z,21.61
2019-06-01T19:09:11.324Z,21.50
2019-06-01T19:11:35.101Z,21.38
2019-06-01T19:13:29.608Z,21.33
2019-06-01T19:15:38.555Z,21.27
2019-06-01T19:17:46.759Z,21.21
2019-06-01T19:19:54.791Z,21.13
2019-06-01T19:22:03.093Z,21.04
2019-06-01T19:24:12.630Z,20.96
2019-06-01T19:26:21.216Z,20.86
2019-06-01T19:28:30.181Z,20.79
2019-06-01T19:30:43.177Z,20.69
2019-06-01T19:32:51.290Z,20.61
2019-06-01T19:34:59.359Z,20.52
2019-06-01T19:37:07.345Z,20.44
2019-06-01T19:39:15.491Z,20.37
2019-06-01T19:41:23.635Z,20.32
2019-06-01T19:43:31.803Z,20.26
2019-06-01T19:45:40.800Z,20.21
2019-06-01T19:47:48.898Z,20.17
2019-06-01T19:49:57.021Z,20.12
2019-06-01T19:52:08.566Z,20.07
2019-06-01T19:54:17.045Z,20.03
2019-06-01T19:56:25.567Z,19.98
2019-06-01T19:58:33.628Z,19.91
2019-06-01T20:00:42.104Z,19.84
2019-06-01T20:02:50.092Z,19.81
2019-06-01T20:04:58.121Z,19.76
2019-06-01T20:07:06.513Z,19.73
2019-06-01T20:09:15.047Z,19.66
2019-06-01T20:11:23.181Z,19.59
2019-06-01T20:13:31.184Z,19.55
2019-06-01T20:15:41.124Z,19.48
2019-06-01T20:17:49.566Z,19.44
2019-06-01T20:19:57.629Z,19.40
2019-06-01T20:22:05.692Z,19.37
2019-06-01T20:39:08.762Z,19.55
2019-06-01T20:41:18.233Z,19.51
2019-06-01T20:43:26.598Z,19.45
2019-06-01T20:45:34.894Z,19.38
2019-06-01T20:47:43.889Z,19.29
2019-06-01T20:49:51.944Z,19.24
2019-06-01T20:52:00.197Z,19.18
2019-06-01T20:54:08.154Z,19.15
2019-06-01T20:56:17.358Z,19.12
2019-06-01T20:58:26.069Z,19.11
2019-06-01T21:00:34.505Z,19.07
2019-06-01T21:02:42.782Z,19.06
2019-06-01T21:04:51.136Z,19.03
2019-06-01T21:06:59.535Z,18.99
2019-06-01T21:09:09.936Z,18.97
2019-06-01T21:11:18.463Z,18.91
2019-06-01T21:13:26.470Z,18.89
2019-06-01T21:15:34.923Z,18.85
2019-06-01T21:17:43.144Z,18.81
2019-06-01T21:19:51.339Z,18.79
2019-06-01T21:21:59.399Z,18.72
2019-06-01T21:24:07.425Z,18.69
2019-06-01T21:26:16.799Z,18.63
2019-06-01T21:28:25.891Z,18.57
2019-06-01T21:30:34.332Z,18.52
2019-06-01T21:32:43.461Z,18.48
2019-06-01T21:34:51.537Z,18.43
2019-06-01T21:36:59.823Z,18.40
2019-06-01T21:39:08.831Z,18.35
2019-06-01T21:41:17.475Z,18.32
2019-06-01T21:43:34.884Z,18.26
2019-06-01T21:45:36.182Z,18.21
2019-06-01T21:47:44.674Z,18.14
2019-06-01T21:49:52.898Z,18.06
2019-06-01T21:52:01.292Z,18.01
2019-06-01T21:54:09.883Z,17.97
2019-06-01T21:56:20.163Z,17.94
2019-06-01T21:58:27.781Z,17.90
2019-06-01T22:00:37.912Z,17.88
2019-06-01T22:02:46.235Z,17.82
2019-06-01T22:04:54.564Z,17.80
2019-06-01T22:07:02.631Z,17.77
2019-06-01T22:09:11.608Z,17.74
2019-06-01T22:11:19.684Z,17.72
2019-06-01T22:13:28.931Z,17.69
2019-06-01T22:15:38.834Z,17.67
2019-06-01T22:17:47.852Z,17.64
2019-06-01T22:19:55.812Z,17.59
2019-06-01T22:22:04.038Z,17.56
2019-06-01T22:24:12.125Z,17.53
2019-06-01T22:26:21.907Z,17.49
2019-06-01T22:28:30.270Z,17.45
2019-06-01T22:30:38.728Z,17.42
2019-06-01T22:32:46.985Z,17.36
2019-06-01T22:34:56.367Z,17.09
2019-06-01T22:37:06.587Z,16.95
2019-06-01T22:39:14.650Z,16.98
2019-06-01T22:41:24.451Z,16.95
2019-06-01T22:43:45.664Z,16.95
2019-06-01T22:45:42.217Z,16.95
2019-06-01T22:47:51.258Z,16.94
2019-06-01T22:49:59.244Z,16.95
2019-06-01T22:52:07.300Z,16.94
2019-06-01T22:54:15.322Z,16.93
2019-06-01T22:56:25.225Z,16.92
2019-06-01T22:58:33.432Z,16.90
2019-06-01T23:00:41.985Z,16.91
2019-06-01T23:02:50.386Z,16.88
2019-06-01T23:04:58.371Z,16.84
2019-06-01T23:07:06.796Z,16.80
2019-06-01T23:09:14.783Z,16.78
2019-06-01T23:11:23.261Z,16.74
2019-06-01T23:13:32.514Z,16.70
2019-06-01T23:15:40.809Z,16.66
2019-06-01T23:17:48.865Z,16.62
2019-06-01T23:19:57.454Z,16.57
2019-06-01T23:22:06.384Z,16.52
2019-06-01T23:24:14.374Z,16.48
2019-06-01T23:26:22.589Z,16.45
2019-06-01T23:28:30.660Z,16.42
2019-06-01T23:30:38.727Z,16.39
2019-06-01T23:32:46.656Z,16.35
2019-06-01T23:34:54.726Z,16.34
2019-06-01T23:37:02.801Z,16.32
2019-06-01T23:39:13.283Z,16.27
2019-06-01T23:41:22.445Z,16.26
2019-06-01T23:43:30.930Z,16.26
2019-06-01T23:45:39.159Z,16.25
2019-06-01T23:47:47.307Z,16.24
2019-06-01T23:49:55.373Z,16.21
2019-06-01T23:52:03.898Z,16.20
2019-06-01T23:54:11.891Z,16.17
2019-06-01T23:56:20.484Z,16.15
2019-06-01T23:58:30.062Z,16.13
